Etusivu
METAR-TAF:

METAR-TAF

Lentoasemat :

Wharton, Texas, Yhdysvallat

Leveyspiiri: 29-15-15N, Pituuspiiri: 096-09-15W, korkeus merenpinnasta: 31 m

Tämänhetkinen sää

Tämä raportti tehtiin 27 minuuttia sitten, kello 04.15 UTC
Tuuli 3 kn etelästä
Lämpötila 11°C
Kosteus 71%
Ilmanpaine 1028 hPa
Näkyvyys: 16.1 km
selkeää

METAR: KARM 290415Z AUTO 18003KT 10SM CLR 11/06 A3037 RMK AO2 T01060062

Aika: 22:42 (04:42 UTC)


TAF: puuttuu

Säähavainnot ja -ennusteet yli 4000 lentoasemalta (METAR- ja TAF-raportit).

Käytössä olevat sääasemat on merkitty karttaan keltaisilla ja punaisilla pisteillä.

Aseta hiiri pisteen päälle nähdäksesi sääaseman nimen.

Klikkaa sitten nähdäksesi säähavainnot ja -ennusteet.

Kartan vaihtaminen: klikkaa mustalla rastilla varustettuja vihreitä pisteitä, niin voit zoomata sisään; viivalla varustettua vihreää pistettä, niin voit zoomata ulos tai vihreitä nuolia, niin pääset viereisille kartoille.


METAR-TAF: